Terminal Aerodrome Forecast
Issued by NWS Duluth, MN

Home | Current Version | Previous Version | Graphics & Text | Print | Product List | Glossary On
Versions: 1 2 3 4 5 6 7 8 9 10 11 12 13 14 15 16 17 18 19 20 21 22 23 24 25 26 27
000
FTUS43 KDLH 301300 AAA
TAFDLH
TAF AMD
KDLH 301314Z 3013/3112 31004KT P6SM VCSH FEW003 OVC019
      TEMPO 3013/3017 28004KT P6SM SCT019 OVC025
     FM301700 31010KT P6SM VCSH BKN020 OVC080
     FM302300 33014G24KT P6SM SCT035 SCT050
     FM310200 35014G26KT P6SM BKN025
     FM310900 35012G20KT P6SM BKN015=

USA.gov is the U.S. government's official web portal to all federal, state and local government web resources and services.